Time;durP1;ratioP1;P1;durP2;ratioP2;P2;SDS_P1;SDS_P2;PMS_P1;PMS_P2;Temp;Humidity;BMP_temperature;BMP_pressure;BME280_temperature;BME280_humidity;BME280_pressure;Samples;Min_cycle;Max_cycle;Signal;HPM_P1;HPM_P2
2022/02/01 00:01:37;;;;;;;2.10;0.47;;;;;;;;;;5013959;28;20038;-94
2022/02/01 00:04:16;;;;;;;0.73;0.30;;;;;;;;;;5013508;28;20056;-92
2022/02/01 00:06:56;;;;;;;0.17;0.00;;;;;;;;;;5015358;28;20665;-92
2022/02/01 00:09:31;;;;;;;1.77;0.47;;;;;;;;;;5014430;28;20052;-93
2022/02/01 00:12:11;;;;;;;0.52;0.15;;;;;;;;;;5017014;28;20042;-93
2022/02/01 00:15:03;;;;;;;1.10;0.28;;;;;;;;;;5020301;28;20115;-93
2022/02/01 00:17:52;;;;;;;1.30;0.60;;;;;;;;;;5003430;28;20050;-91
2022/02/01 00:20:38;;;;;;;0.50;0.10;;;;;;;;;;5021562;28;20057;-92
2022/02/01 00:34:29;;;;;;;0.80;0.17;;;;;;;;;;5017284;28;20041;-92
2022/02/01 00:37:06;;;;;;;0.98;0.38;;;;;;;;;;5026696;28;20492;-93
2022/02/01 00:39:42;;;;;;;1.00;0.63;;;;;;;;;;5018417;28;20057;-93
2022/02/01 00:42:12;;;;;;;0.57;0.10;;;;;;;;;;5015905;28;20667;-92
2022/02/01 00:44:42;;;;;;;0.60;0.10;;;;;;;;;;5023143;28;20038;-92
2022/02/01 00:47:11;;;;;;;0.45;0.10;;;;;;;;;;5019799;28;20042;-93
2022/02/01 00:49:39;;;;;;;0.50;0.10;;;;;;;;;;5011023;28;20137;-92
2022/02/01 00:52:10;;;;;;;0.38;0.10;;;;;;;;;;5006753;28;20103;-91
2022/02/01 00:54:41;;;;;;;0.30;0.00;;;;;;;;;;5010154;28;20077;-91
2022/02/01 00:57:12;;;;;;;0.33;0.03;;;;;;;;;;5011499;28;20098;-92
2022/02/01 00:59:42;;;;;;;0.50;0.30;;;;;;;;;;4995918;28;20056;-92
2022/02/01 01:02:11;;;;;;;0.35;0.08;;;;;;;;;;5012644;28;20037;-93
2022/02/01 01:04:41;;;;;;;0.17;0.00;;;;;;;;;;5010226;28;20050;-92
2022/02/01 01:07:12;;;;;;;0.30;0.00;;;;;;;;;;5010670;28;20066;-92
2022/02/01 01:09:41;;;;;;;0.40;0.10;;;;;;;;;;5010725;28;20042;-92
2022/02/01 01:12:10;;;;;;;0.43;0.10;;;;;;;;;;5013018;28;20046;-93
2022/02/01 01:15:05;;;;;;;0.60;0.15;;;;;;;;;;5012630;28;20124;-93
2022/02/01 01:18:06;;;;;;;0.45;0.10;;;;;;;;;;5018021;28;20105;-93
2022/02/01 01:43:30;;;;;;;0.50;0.10;;;;;;;;;;5008385;28;20041;-91
2022/02/01 01:44:33;;;;;;;1.27;0.40;;;;;;;;;;5021217;28;20038;-94
2022/02/01 01:53:10;;;;;;;1.33;0.30;;;;;;;;;;4995153;28;20106;-94
2022/02/01 01:55:38;;;;;;;2.45;0.63;;;;;;;;;;5021066;28;20530;-92
2022/02/01 01:58:08;;;;;;;2.13;0.70;;;;;;;;;;5014549;28;20125;-90
2022/02/01 02:00:57;;;;;;;1.70;0.40;;;;;;;;;;5014471;28;20505;-94
2022/02/01 02:03:27;;;;;;;1.60;0.40;;;;;;;;;;4993655;28;20049;-94
2022/02/01 02:05:56;;;;;;;1.03;0.50;;;;;;;;;;5009672;28;20046;-92
2022/02/01 02:08:26;;;;;;;1.13;0.30;;;;;;;;;;5013127;28;20058;-92
2022/02/01 02:11:00;;;;;;;1.70;0.52;;;;;;;;;;5015462;28;20041;-91
2022/02/01 02:17:47;;;;;;;3.20;1.20;;;;;;;;;;5014185;28;20061;-92
2022/02/01 02:20:19;;;;;;;1.97;0.17;;;;;;;;;;5017330;28;20057;-91
2022/02/01 02:22:52;;;;;;;1.83;0.95;;;;;;;;;;5023774;28;20046;-93
2022/02/01 02:28:24;;;;;;;1.08;0.22;;;;;;;;;;5012901;28;20097;-92
2022/02/01 02:31:08;;;;;;;1.30;0.35;;;;;;;;;;5020222;28;20034;-91
2022/02/01 02:33:42;;;;;;;2.40;0.63;;;;;;;;;;5018141;28;20038;-93
2022/02/01 02:37:04;;;;;;;1.67;0.28;;;;;;;;;;5022933;28;20056;-91
2022/02/01 02:39:48;;;;;;;0.82;0.38;;;;;;;;;;4962777;28;20055;-92
2022/02/01 02:42:33;;;;;;;1.27;0.45;;;;;;;;;;4963392;29;20047;-92
2022/02/01 02:45:17;;;;;;;1.90;0.93;;;;;;;;;;5022790;28;20042;-92
2022/02/01 02:47:49;;;;;;;2.93;0.83;;;;;;;;;;5023771;28;20053;-91
2022/02/01 02:50:27;;;;;;;3.13;1.40;;;;;;;;;;5029856;28;20385;-92
2022/02/01 02:52:56;;;;;;;1.58;0.60;;;;;;;;;;5024428;28;20052;-92
2022/02/01 02:55:31;;;;;;;1.35;0.57;;;;;;;;;;5028283;28;20068;-91
2022/02/01 02:58:06;;;;;;;3.22;0.95;;;;;;;;;;5023425;28;20547;-92
2022/02/01 03:01:19;;;;;;;2.17;0.60;;;;;;;;;;5022109;28;20062;-92
2022/02/01 03:03:54;;;;;;;3.70;1.30;;;;;;;;;;5003177;28;20049;-93
2022/02/01 03:06:35;;;;;;;3.33;0.93;;;;;;;;;;5022397;28;20037;-92
2022/02/01 03:09:41;;;;;;;1.45;0.80;;;;;;;;;;5026127;28;20038;-93
2022/02/01 03:12:13;;;;;;;2.03;0.93;;;;;;;;;;5030753;28;20042;-92
2022/02/01 03:14:50;;;;;;;1.73;0.97;;;;;;;;;;5024821;28;20034;-93
2022/02/01 03:17:28;;;;;;;1.88;0.80;;;;;;;;;;5028052;28;20042;-94
2022/02/01 03:19:56;;;;;;;4.43;1.02;;;;;;;;;;5028437;28;20337;-94
2022/02/01 03:22:26;;;;;;;2.35;0.75;;;;;;;;;;5027990;28;20041;-94
2022/02/01 03:25:02;;;;;;;1.33;0.60;;;;;;;;;;5029436;28;20120;-93
2022/02/01 03:27:35;;;;;;;2.40;0.63;;;;;;;;;;5017843;28;20073;-92
2022/02/01 03:30:05;;;;;;;1.08;0.52;;;;;;;;;;5032419;28;20044;-93
2022/02/01 03:35:31;;;;;;;1.25;0.70;;;;;;;;;;5019355;28;20042;-91
2022/02/01 03:38:01;;;;;;;1.98;0.52;;;;;;;;;;5010308;28;20045;-90
2022/02/01 03:40:30;;;;;;;3.50;0.87;;;;;;;;;;5015803;28;20099;-91
2022/02/01 03:43:00;;;;;;;2.33;0.93;;;;;;;;;;5013657;28;20713;-91
2022/02/01 03:45:30;;;;;;;4.03;1.10;;;;;;;;;;5017440;28;20604;-91
2022/02/01 03:47:59;;;;;;;4.70;1.83;;;;;;;;;;5012685;28;20077;-90
2022/02/01 03:50:27;;;;;;;5.15;1.27;;;;;;;;;;5021968;28;20050;-92
2022/02/01 03:52:55;;;;;;;3.57;1.33;;;;;;;;;;5014418;28;20042;-91
2022/02/01 03:55:24;;;;;;;2.17;1.17;;;;;;;;;;5018982;28;20132;-91
2022/02/01 03:57:53;;;;;;;3.03;1.77;;;;;;;;;;5015180;28;20063;-91
2022/02/01 04:00:24;;;;;;;4.15;1.90;;;;;;;;;;5004803;28;20117;-92
2022/02/01 04:02:54;;;;;;;3.90;1.98;;;;;;;;;;5025240;28;20500;-93
2022/02/01 04:05:23;;;;;;;4.17;1.43;;;;;;;;;;5021027;28;20097;-92
2022/02/01 04:07:52;;;;;;;2.72;0.95;;;;;;;;;;5021720;28;20074;-92
2022/02/01 04:10:22;;;;;;;3.55;1.90;;;;;;;;;;5024343;28;20038;-93
2022/02/01 04:12:50;;;;;;;8.70;2.10;;;;;;;;;;5032182;28;20093;-92
2022/02/01 04:15:21;;;;;;;3.55;1.75;;;;;;;;;;5032190;28;21254;-93
2022/02/01 04:17:52;;;;;;;4.53;1.23;;;;;;;;;;5029227;28;20056;-90
2022/02/01 04:20:22;;;;;;;3.20;2.00;;;;;;;;;;5018565;28;20172;-91
2022/02/01 04:22:51;;;;;;;6.68;1.85;;;;;;;;;;5015266;28;20048;-92
2022/02/01 04:25:20;;;;;;;3.88;1.38;;;;;;;;;;5016116;28;20042;-92
2022/02/01 04:27:48;;;;;;;4.57;2.42;;;;;;;;;;5020923;28;20048;-93
2022/02/01 04:30:18;;;;;;;7.87;2.43;;;;;;;;;;5027052;28;21263;-93
2022/02/01 04:32:48;;;;;;;4.97;2.70;;;;;;;;;;5014473;28;20042;-93
2022/02/01 04:35:45;;;;;;;5.25;1.88;;;;;;;;;;5018681;28;20054;-92
2022/02/01 04:38:56;;;;;;;1.23;0.65;;;;;;;;;;5025531;28;20100;-93
2022/02/01 04:41:26;;;;;;;4.35;1.60;;;;;;;;;;5024998;28;20058;-94
2022/02/01 04:43:57;;;;;;;7.83;2.57;;;;;;;;;;5021087;28;20555;-93
2022/02/01 04:46:35;;;;;;;6.57;2.58;;;;;;;;;;5002922;28;20034;-92
2022/02/01 04:49:09;;;;;;;4.72;1.90;;;;;;;;;;5012698;28;20042;-91
2022/02/01 04:51:47;;;;;;;5.45;1.70;;;;;;;;;;5011493;28;20046;-91
2022/02/01 04:54:25;;;;;;;7.95;3.22;;;;;;;;;;5024743;28;20025;-93
2022/02/01 04:56:54;;;;;;;3.33;1.37;;;;;;;;;;4999585;28;20046;-93
2022/02/01 04:59:27;;;;;;;6.95;2.88;;;;;;;;;;5011612;28;20037;-93
2022/02/01 05:01:56;;;;;;;6.80;2.00;;;;;;;;;;5006494;28;20039;-93
2022/02/01 05:04:25;;;;;;;5.80;2.58;;;;;;;;;;5012641;28;20050;-93
2022/02/01 05:07:28;;;;;;;6.53;2.33;;;;;;;;;;5014728;28;20049;-93
2022/02/01 05:09:59;;;;;;;6.07;2.63;;;;;;;;;;5013420;28;20110;-93
2022/02/01 05:12:54;;;;;;;7.78;2.92;;;;;;;;;;5012607;28;20046;-93
2022/02/01 05:15:24;;;;;;;7.50;2.47;;;;;;;;;;5012287;28;20480;-92
2022/02/01 05:17:55;;;;;;;5.90;2.78;;;;;;;;;;5013313;28;20050;-92
2022/02/01 05:20:40;;;;;;;9.20;4.00;;;;;;;;;;4999652;28;20085;-89
2022/02/01 05:23:28;;;;;;;7.13;2.90;;;;;;;;;;5009702;28;20045;-90
2022/02/01 05:26:26;;;;;;;4.45;1.90;;;;;;;;;;5004585;28;20104;-90
2022/02/01 05:28:58;;;;;;;5.78;1.98;;;;;;;;;;5010599;28;20050;-90
2022/02/01 05:31:47;;;;;;;5.80;2.78;;;;;;;;;;5010990;28;20408;-90
2022/02/01 05:34:18;;;;;;;6.35;2.65;;;;;;;;;;5008785;28;20038;-90
2022/02/01 05:36:47;;;;;;;5.67;2.47;;;;;;;;;;5010245;28;20041;-91
2022/02/01 05:39:19;;;;;;;3.78;1.90;;;;;;;;;;5006129;28;20081;-90
2022/02/01 05:41:50;;;;;;;7.00;2.92;;;;;;;;;;5010886;28;20050;-92
2022/02/01 05:44:21;;;;;;;6.22;3.13;;;;;;;;;;5010389;28;20050;-92
2022/02/01 05:46:54;;;;;;;5.07;2.25;;;;;;;;;;5019089;28;20085;-94
2022/02/01 05:49:23;;;;;;;4.07;2.10;;;;;;;;;;5017144;28;20046;-93
2022/02/01 05:51:52;;;;;;;3.53;1.27;;;;;;;;;;5008821;28;20455;-86
2022/02/01 05:54:25;;;;;;;8.13;3.08;;;;;;;;;;5003594;28;20042;-85
2022/02/01 05:56:57;;;;;;;4.07;1.80;;;;;;;;;;5007336;28;20135;-91
2022/02/01 05:59:32;;;;;;;5.70;1.98;;;;;;;;;;5004636;28;20066;-81
2022/02/01 06:02:02;;;;;;;2.10;1.40;;;;;;;;;;5007200;28;20034;-82
2022/02/01 06:04:34;;;;;;;12.68;3.58;;;;;;;;;;4996980;28;20079;-80
2022/02/01 06:07:05;;;;;;;2.22;1.35;;;;;;;;;;5007187;28;20038;-89
2022/02/01 06:09:34;;;;;;;3.28;1.48;;;;;;;;;;5008839;28;20492;-87
2022/02/01 06:12:02;;;;;;;6.18;2.08;;;;;;;;;;5007855;28;20050;-85
2022/02/01 06:14:38;;;;;;;4.57;1.70;;;;;;;;;;5007698;28;20046;-85
2022/02/01 06:17:08;;;;;;;2.90;1.58;;;;;;;;;;5011474;28;20076;-87
2022/02/01 06:19:37;;;;;;;3.92;2.33;;;;;;;;;;5008075;28;20485;-85
2022/02/01 06:22:06;;;;;;;4.30;2.10;;;;;;;;;;5004275;28;20074;-80
2022/02/01 06:24:38;;;;;;;2.58;1.17;;;;;;;;;;5009231;28;20046;-87
2022/02/01 06:27:07;;;;;;;3.07;1.57;;;;;;;;;;5008245;28;20034;-84
2022/02/01 06:29:37;;;;;;;1.50;0.70;;;;;;;;;;5011398;28;20046;-85
2022/02/01 06:32:08;;;;;;;4.00;1.15;;;;;;;;;;5010875;28;20432;-86
2022/02/01 06:34:37;;;;;;;3.05;0.80;;;;;;;;;;5010019;28;20050;-86
2022/02/01 06:37:07;;;;;;;2.28;1.10;;;;;;;;;;5009983;28;20069;-87
2022/02/01 06:39:37;;;;;;;7.53;1.13;;;;;;;;;;5010702;28;20134;-86
2022/02/01 06:42:07;;;;;;;8.95;1.83;;;;;;;;;;5009259;28;20041;-86
2022/02/01 06:44:38;;;;;;;2.15;1.25;;;;;;;;;;5011977;28;20053;-87
2022/02/01 06:47:08;;;;;;;2.30;0.88;;;;;;;;;;5009445;28;20088;-86
2022/02/01 06:49:36;;;;;;;1.88;0.57;;;;;;;;;;5009145;28;20053;-86
2022/02/01 06:52:05;;;;;;;11.53;1.17;;;;;;;;;;4993275;28;20404;-88
2022/02/01 06:54:36;;;;;;;3.25;0.73;;;;;;;;;;5011869;28;20502;-87
2022/02/01 06:57:04;;;;;;;0.80;0.32;;;;;;;;;;5009425;28;20147;-87
2022/02/01 06:59:34;;;;;;;1.45;0.50;;;;;;;;;;5011162;28;20041;-88
2022/02/01 07:02:06;;;;;;;2.17;0.63;;;;;;;;;;5008267;28;20069;-87
2022/02/01 07:04:39;;;;;;;2.63;1.70;;;;;;;;;;5011871;28;20587;-86
2022/02/01 07:07:09;;;;;;;1.88;0.93;;;;;;;;;;4995721;28;20038;-87
2022/02/01 07:09:40;;;;;;;2.50;1.27;;;;;;;;;;5016697;28;20125;-86
2022/02/01 07:12:10;;;;;;;0.90;0.50;;;;;;;;;;5002776;28;20050;-86
2022/02/01 07:14:39;;;;;;;6.53;0.95;;;;;;;;;;5006019;28;20050;-85
2022/02/01 07:17:09;;;;;;;1.00;0.50;;;;;;;;;;5005019;28;20080;-86
2022/02/01 07:19:38;;;;;;;0.30;0.17;;;;;;;;;;5010405;28;20522;-86
2022/02/01 07:22:34;;;;;;;5.30;1.25;;;;;;;;;;4997004;28;20091;-85
2022/02/01 07:25:13;;;;;;;8.27;1.73;;;;;;;;;;5117846;23;20684;-77
2022/02/01 07:28:10;;;;;;;4.00;0.47;;;;;;;;;;4940585;28;20035;-77
2022/02/01 07:30:39;;;;;;;2.30;0.97;;;;;;;;;;4942141;28;20102;-76
2022/02/01 07:33:09;;;;;;;0.85;0.40;;;;;;;;;;4944994;29;20046;-76
2022/02/01 07:35:38;;;;;;;1.77;0.52;;;;;;;;;;4941889;29;20250;-76
2022/02/01 07:38:08;;;;;;;2.33;0.65;;;;;;;;;;4958380;28;20204;-76
2022/02/01 07:40:39;;;;;;;10.05;2.15;;;;;;;;;;4935482;28;20048;-76
2022/02/01 07:43:08;;;;;;;5.70;0.20;;;;;;;;;;4946774;28;20043;-76
2022/02/01 07:45:39;;;;;;;1.67;0.22;;;;;;;;;;4943596;28;20063;-76
2022/02/01 07:48:14;;;;;;;1.58;0.50;;;;;;;;;;4949771;28;20051;-76
2022/02/01 07:50:44;;;;;;;0.32;0.10;;;;;;;;;;4936483;28;20513;-76
2022/02/01 07:53:13;;;;;;;1.95;0.90;;;;;;;;;;4946975;28;20043;-76
2022/02/01 07:55:42;;;;;;;2.23;0.57;;;;;;;;;;4943872;28;20055;-76
2022/02/01 07:58:10;;;;;;;3.10;0.98;;;;;;;;;;4946854;29;20045;-76
2022/02/01 08:00:40;;;;;;;1.58;0.45;;;;;;;;;;4940633;28;20071;-76
2022/02/01 08:03:11;;;;;;;2.47;0.57;;;;;;;;;;4944846;28;20090;-75
2022/02/01 08:05:41;;;;;;;4.32;1.63;;;;;;;;;;4940284;28;20048;-76
2022/02/01 08:08:11;;;;;;;1.53;0.40;;;;;;;;;;4931833;29;20047;-76
2022/02/01 08:10:44;;;;;;;3.65;2.08;;;;;;;;;;4944133;28;20407;-76
2022/02/01 08:19:15;;;;;;;12.18;0.90;;;;;;;;;;4945471;29;20047;-76
2022/02/01 08:21:55;;;;;;;1.30;0.57;;;;;;;;;;4941837;28;20402;-76
2022/02/01 08:24:24;;;;;;;10.30;1.15;;;;;;;;;;4934951;28;20054;-76
2022/02/01 08:26:53;;;;;;;4.45;1.10;;;;;;;;;;4947070;29;20102;-76
2022/02/01 08:29:22;;;;;;;6.30;0.47;;;;;;;;;;4943487;28;20497;-76
2022/02/01 08:31:51;;;;;;;4.18;0.95;;;;;;;;;;4913708;29;20047;-76
2022/02/01 08:34:20;;;;;;;7.03;0.60;;;;;;;;;;4939590;28;20043;-75
2022/02/01 08:36:49;;;;;;;5.05;0.88;;;;;;;;;;4944688;28;20031;-76
2022/02/01 08:39:20;;;;;;;0.93;0.30;;;;;;;;;;4942089;29;20118;-75
2022/02/01 08:41:49;;;;;;;3.88;1.27;;;;;;;;;;4942941;28;20044;-76
2022/02/01 08:44:24;;;;;;;2.85;0.85;;;;;;;;;;4940282;28;20095;-76
2022/02/01 08:46:53;;;;;;;12.33;1.03;;;;;;;;;;4957136;28;20129;-75
2022/02/01 08:49:22;;;;;;;2.38;1.02;;;;;;;;;;4932315;29;20162;-75
2022/02/01 08:52:01;;;;;;;2.97;0.82;;;;;;;;;;4944393;28;20062;-76
2022/02/01 08:54:33;;;;;;;1.83;0.85;;;;;;;;;;4939957;28;20075;-76
2022/02/01 08:57:24;;;;;;;0.90;0.50;;;;;;;;;;4958840;28;20124;-75
2022/02/01 08:59:55;;;;;;;6.93;1.10;;;;;;;;;;4953559;28;20501;-76
2022/02/01 09:02:25;;;;;;;2.10;1.48;;;;;;;;;;4941827;29;20047;-75
2022/02/01 09:04:54;;;;;;;8.98;1.17;;;;;;;;;;4938031;28;20077;-76
2022/02/01 09:07:23;;;;;;;7.10;1.05;;;;;;;;;;4940303;29;20123;-76
2022/02/01 09:09:53;;;;;;;9.45;2.00;;;;;;;;;;4954354;28;20063;-76
2022/02/01 09:12:21;;;;;;;2.43;0.87;;;;;;;;;;4943354;28;20489;-76
2022/02/01 09:14:51;;;;;;;1.45;0.90;;;;;;;;;;4942191;28;20458;-76
2022/02/01 09:17:21;;;;;;;2.05;0.38;;;;;;;;;;4956506;28;20043;-76
2022/02/01 09:19:50;;;;;;;2.40;1.80;;;;;;;;;;4931380;29;20047;-76
2022/02/01 09:22:21;;;;;;;7.70;1.05;;;;;;;;;;4943894;28;20055;-76
2022/02/01 09:24:50;;;;;;;5.13;1.37;;;;;;;;;;4945849;28;20154;-76
2022/02/01 09:27:20;;;;;;;7.95;2.67;;;;;;;;;;4945008;28;20125;-76
2022/02/01 09:29:49;;;;;;;5.10;0.73;;;;;;;;;;4928484;29;20043;-75
2022/02/01 09:32:18;;;;;;;2.05;0.85;;;;;;;;;;4946315;28;20053;-76
2022/02/01 09:35:07;;;;;;;2.45;0.65;;;;;;;;;;4941426;28;20039;-76
2022/02/01 09:37:36;;;;;;;2.13;1.00;;;;;;;;;;4939590;28;20114;-76
2022/02/01 09:40:05;;;;;;;3.15;0.88;;;;;;;;;;4944682;28;20043;-76
2022/02/01 09:42:39;;;;;;;3.30;1.10;;;;;;;;;;4943564;28;20047;-76
2022/02/01 09:45:08;;;;;;;10.88;1.58;;;;;;;;;;4959492;28;20043;-76
2022/02/01 09:48:01;;;;;;;0.40;0.20;;;;;;;;;;4967508;28;20023;-81
2022/02/01 09:50:31;;;;;;;7.47;1.83;;;;;;;;;;4949649;29;20390;-77
2022/02/01 09:53:00;;;;;;;4.45;1.25;;;;;;;;;;4946838;28;20040;-76
2022/02/01 09:55:30;;;;;;;5.50;1.55;;;;;;;;;;4946693;28;20057;-76
2022/02/01 09:58:04;;;;;;;2.25;1.42;;;;;;;;;;4946122;28;20034;-76
2022/02/01 10:00:35;;;;;;;2.40;0.95;;;;;;;;;;4944754;28;20441;-75
2022/02/01 10:03:06;;;;;;;8.13;0.77;;;;;;;;;;4959633;28;20055;-76
2022/02/01 10:05:37;;;;;;;10.23;1.75;;;;;;;;;;4934559;29;20050;-76
2022/02/01 10:08:07;;;;;;;1.60;1.02;;;;;;;;;;4946141;28;20050;-76
2022/02/01 10:10:36;;;;;;;2.35;0.50;;;;;;;;;;4932201;29;20047;-76
2022/02/01 10:13:13;;;;;;;0.98;0.38;;;;;;;;;;4942298;29;20043;-76
2022/02/01 10:15:46;;;;;;;0.50;0.30;;;;;;;;;;4944728;29;20040;-76
2022/02/01 10:18:26;;;;;;;3.53;0.75;;;;;;;;;;4946829;28;20453;-76
2022/02/01 10:20:56;;;;;;;4.20;1.27;;;;;;;;;;4948153;29;20043;-76
2022/02/01 10:26:39;;;;;;;1.38;0.50;;;;;;;;;;4945768;28;20073;-76
2022/02/01 10:29:18;;;;;;;0.60;0.10;;;;;;;;;;4935051;29;20114;-76
2022/02/01 10:31:52;;;;;;;4.80;0.90;;;;;;;;;;4945311;28;20065;-75
2022/02/01 10:34:40;;;;;;;13.27;0.70;;;;;;;;;;4950874;28;20540;-76
2022/02/01 10:37:26;;;;;;;1.90;0.68;;;;;;;;;;4949673;28;20043;-76
2022/02/01 10:39:58;;;;;;;2.78;1.05;;;;;;;;;;4946441;28;20078;-76
2022/02/01 10:42:30;;;;;;;0.80;0.47;;;;;;;;;;4939980;28;20700;-76
2022/02/01 10:45:00;;;;;;;10.73;1.33;;;;;;;;;;4946136;28;20562;-76
2022/02/01 10:47:34;;;;;;;7.07;1.77;;;;;;;;;;4947126;28;20043;-76
2022/02/01 10:50:04;;;;;;;3.70;0.70;;;;;;;;;;4944616;28;20085;-76
2022/02/01 10:52:35;;;;;;;1.52;0.85;;;;;;;;;;4942534;28;20043;-76
2022/02/01 10:55:04;;;;;;;4.77;1.13;;;;;;;;;;4945607;29;20576;-76
2022/02/01 10:57:33;;;;;;;2.80;1.42;;;;;;;;;;4940004;28;20043;-75
2022/02/01 11:00:05;;;;;;;4.65;1.15;;;;;;;;;;4946563;28;20071;-76
2022/02/01 11:02:37;;;;;;;3.97;1.05;;;;;;;;;;4947348;28;20047;-76
2022/02/01 11:05:08;;;;;;;5.38;0.75;;;;;;;;;;4947515;28;20055;-76
2022/02/01 11:07:57;;;;;;;0.80;0.23;;;;;;;;;;4940996;28;20043;-76
2022/02/01 11:10:26;;;;;;;5.13;0.93;;;;;;;;;;4945649;28;20047;-76
2022/02/01 11:13:04;;;;;;;1.00;0.40;;;;;;;;;;4949760;28;20049;-76
2022/02/01 11:15:35;;;;;;;3.40;0.63;;;;;;;;;;4941908;28;20051;-76
2022/02/01 11:18:28;;;;;;;20.65;0.85;;;;;;;;;;4939144;28;20043;-76
2022/02/01 11:21:09;;;;;;;3.47;0.60;;;;;;;;;;4940626;28;20058;-76
2022/02/01 11:26:49;;;;;;;0.75;0.13;;;;;;;;;;4948608;28;20085;-76
2022/02/01 11:35:14;;;;;;;2.43;1.33;;;;;;;;;;4960530;28;20081;-76
2022/02/01 11:38:28;;;;;;;3.90;0.65;;;;;;;;;;4941578;28;20051;-76
2022/02/01 11:41:03;;;;;;;1.15;0.60;;;;;;;;;;4963013;28;20051;-76
2022/02/01 11:43:40;;;;;;;5.13;0.63;;;;;;;;;;4947991;28;20043;-75
2022/02/01 11:46:10;;;;;;;1.67;0.90;;;;;;;;;;4944243;28;20486;-76
2022/02/01 11:48:41;;;;;;;0.90;0.33;;;;;;;;;;4946242;28;20046;-75
2022/02/01 11:51:11;;;;;;;1.90;0.90;;;;;;;;;;4964114;28;20039;-76
2022/02/01 11:53:41;;;;;;;0.90;0.17;;;;;;;;;;4947088;28;20098;-76
2022/02/01 11:56:11;;;;;;;1.35;0.55;;;;;;;;;;4949801;28;20039;-76
2022/02/01 11:58:42;;;;;;;3.15;0.75;;;;;;;;;;4935375;28;20062;-76
2022/02/01 12:01:21;;;;;;;6.90;0.70;;;;;;;;;;4948539;28;20101;-76
2022/02/01 12:04:00;;;;;;;5.25;0.52;;;;;;;;;;4946436;28;20065;-76
2022/02/01 12:06:38;;;;;;;5.10;0.85;;;;;;;;;;4948302;28;20043;-76
2022/02/01 12:09:31;;;;;;;0.40;0.10;;;;;;;;;;4950663;28;20189;-74
2022/02/01 12:12:00;;;;;;;1.60;0.45;;;;;;;;;;4948122;28;20039;-76
2022/02/01 12:14:31;;;;;;;7.73;2.13;;;;;;;;;;4946804;28;20043;-76
2022/02/01 12:17:00;;;;;;;0.93;0.40;;;;;;;;;;4954512;28;20110;-76
2022/02/01 12:19:35;;;;;;;8.73;0.77;;;;;;;;;;4962705;28;20066;-76
2022/02/01 12:22:31;;;;;;;1.58;0.65;;;;;;;;;;4925473;28;20545;-76
2022/02/01 12:25:05;;;;;;;1.80;1.00;;;;;;;;;;4944040;28;20050;-75
2022/02/01 12:27:58;;;;;;;1.07;0.27;;;;;;;;;;4944204;28;20039;-76
2022/02/01 12:30:28;;;;;;;1.67;0.82;;;;;;;;;;4958541;28;20052;-76
2022/02/01 12:32:59;;;;;;;2.33;0.93;;;;;;;;;;4941419;28;20059;-76
2022/02/01 12:36:02;;;;;;;3.55;0.57;;;;;;;;;;4945356;29;20528;-76
2022/02/01 12:38:31;;;;;;;1.42;0.45;;;;;;;;;;4941163;28;20114;-76
2022/02/01 12:41:12;;;;;;;3.60;1.00;;;;;;;;;;4945477;28;20051;-76
2022/02/01 12:45:41;;;;;;;2.65;0.65;;;;;;;;;;4947024;28;20043;-76
2022/02/01 12:46:42;;;;;;;4.75;0.55;;;;;;;;;;4946161;28;20039;-76
2022/02/01 12:49:36;;;;;;;3.78;1.05;;;;;;;;;;4944488;28;20057;-75
2022/02/01 12:52:18;;;;;;;9.20;1.10;;;;;;;;;;4942775;29;20046;-76
2022/02/01 12:54:58;;;;;;;2.73;0.43;;;;;;;;;;4945594;28;20066;-76
2022/02/01 12:57:27;;;;;;;4.65;0.77;;;;;;;;;;4945724;28;20477;-76
2022/02/01 12:59:58;;;;;;;8.95;1.17;;;;;;;;;;4944747;29;20180;-76
2022/02/01 13:02:28;;;;;;;2.17;0.70;;;;;;;;;;4940293;28;20039;-76
2022/02/01 13:05:03;;;;;;;1.67;0.77;;;;;;;;;;4932592;29;20054;-76
2022/02/01 13:07:47;;;;;;;6.30;0.43;;;;;;;;;;4944697;29;20121;-76
2022/02/01 13:13:25;;;;;;;3.40;0.38;;;;;;;;;;4940586;28;20040;-76
2022/02/01 13:16:18;;;;;;;6.97;0.45;;;;;;;;;;4940945;28;20075;-76
2022/02/01 13:21:37;;;;;;;3.50;0.30;;;;;;;;;;4957297;28;20044;-76
2022/02/01 13:24:13;;;;;;;13.07;0.88;;;;;;;;;;4959460;28;20477;-75
2022/02/01 13:27:03;;;;;;;7.10;0.68;;;;;;;;;;4942465;29;20044;-76
2022/02/01 13:29:32;;;;;;;2.05;0.68;;;;;;;;;;4956781;28;20044;-76
2022/02/01 13:32:00;;;;;;;1.65;0.50;;;;;;;;;;4942127;29;20050;-76
2022/02/01 13:34:31;;;;;;;1.27;0.40;;;;;;;;;;4938130;28;20130;-76
2022/02/01 13:37:02;;;;;;;1.38;0.43;;;;;;;;;;4932018;29;20043;-76
2022/02/01 13:39:56;;;;;;;3.35;0.98;;;;;;;;;;4941288;28;20195;-76
2022/02/01 13:42:30;;;;;;;2.08;1.00;;;;;;;;;;4928082;29;20044;-76
2022/02/01 13:45:09;;;;;;;2.92;0.80;;;;;;;;;;4941792;28;20047;-76
2022/02/01 13:47:39;;;;;;;2.03;0.77;;;;;;;;;;4941824;29;20052;-76
2022/02/01 13:50:09;;;;;;;1.48;0.68;;;;;;;;;;4942184;28;20051;-75
2022/02/01 13:52:38;;;;;;;2.72;0.50;;;;;;;;;;4957913;28;20048;-76
2022/02/01 13:55:19;;;;;;;5.63;0.75;;;;;;;;;;4943451;28;20126;-76
2022/02/01 13:57:47;;;;;;;1.50;0.50;;;;;;;;;;4957795;28;20051;-75
2022/02/01 14:00:16;;;;;;;2.10;0.43;;;;;;;;;;4943456;28;20050;-76
2022/02/01 14:02:57;;;;;;;7.22;1.10;;;;;;;;;;4961789;28;20062;-75
2022/02/01 14:05:31;;;;;;;6.18;1.13;;;;;;;;;;4958726;28;20141;-76
2022/02/01 14:14:11;;;;;;;1.80;0.77;;;;;;;;;;4942205;28;20534;-75
2022/02/01 14:26:13;;;;;;;5.43;1.42;;;;;;;;;;4942096;28;20592;-76
2022/02/01 14:28:52;;;;;;;1.97;1.13;;;;;;;;;;4944612;28;20079;-76
2022/02/01 14:34:33;;;;;;;0.90;0.20;;;;;;;;;;4944673;29;20055;-76
2022/02/01 14:37:08;;;;;;;1.00;0.25;;;;;;;;;;4948558;29;20043;-76
2022/02/01 14:49:05;;;;;;;1.00;0.20;;;;;;;;;;4908447;29;20055;-76
2022/02/01 14:51:34;;;;;;;2.97;0.50;;;;;;;;;;4911756;29;20539;-76
2022/02/01 14:54:05;;;;;;;0.98;0.20;;;;;;;;;;4911420;29;20050;-76
2022/02/01 14:56:37;;;;;;;0.53;0.20;;;;;;;;;;4912434;29;20056;-76
2022/02/01 15:04:58;;;;;;;0.85;0.20;;;;;;;;;;4913011;29;20064;-76
2022/02/01 15:07:47;;;;;;;1.15;0.40;;;;;;;;;;4912761;29;20052;-76
2022/02/01 15:13:03;;;;;;;2.70;0.60;;;;;;;;;;4913732;29;20060;-76
2022/02/01 15:15:32;;;;;;;9.77;0.70;;;;;;;;;;4907629;29;20127;-76
2022/02/01 15:18:00;;;;;;;1.23;0.50;;;;;;;;;;4918568;29;20082;-76
2022/02/01 15:20:35;;;;;;;1.10;0.30;;;;;;;;;;4949127;28;20091;-76
2022/02/01 15:23:04;;;;;;;1.57;0.33;;;;;;;;;;4950245;29;20118;-75
2022/02/01 15:25:34;;;;;;;1.15;0.25;;;;;;;;;;4947086;28;20533;-76
2022/02/01 15:28:03;;;;;;;0.88;0.15;;;;;;;;;;4950189;29;20050;-75
2022/02/01 15:30:34;;;;;;;1.10;0.43;;;;;;;;;;4959694;28;20458;-75
2022/02/01 15:33:04;;;;;;;0.80;0.20;;;;;;;;;;4947872;29;20075;-75
2022/02/01 15:35:37;;;;;;;1.40;0.30;;;;;;;;;;4947344;28;20082;-75
2022/02/01 15:38:08;;;;;;;1.80;0.45;;;;;;;;;;4945486;29;20043;-75
2022/02/01 15:57:50;;;;;;;2.80;0.80;;;;;;;;;;4932151;29;20051;-75
2022/02/01 16:00:25;;;;;;;1.13;0.20;;;;;;;;;;4954134;28;20039;-75
2022/02/01 16:02:56;;;;;;;0.90;0.30;;;;;;;;;;4961722;28;20470;-75
2022/02/01 16:05:25;;;;;;;1.75;0.75;;;;;;;;;;4943533;28;20039;-75
2022/02/01 16:08:01;;;;;;;1.70;0.45;;;;;;;;;;4947212;28;20043;-75
2022/02/01 16:10:36;;;;;;;1.35;0.30;;;;;;;;;;4942609;28;20563;-75
2022/02/01 16:13:10;;;;;;;1.60;0.38;;;;;;;;;;4944745;29;20722;-75
2022/02/01 16:18:34;;;;;;;2.38;0.60;;;;;;;;;;4946617;28;20085;-75
2022/02/01 16:21:03;;;;;;;0.80;0.22;;;;;;;;;;4946710;28;20043;-76
2022/02/01 16:26:52;;;;;;;0.85;0.20;;;;;;;;;;4914256;29;20078;-76
2022/02/01 16:29:22;;;;;;;1.67;0.50;;;;;;;;;;4926697;29;20418;-76
2022/02/01 16:31:51;;;;;;;0.88;0.40;;;;;;;;;;4923105;29;20427;-74
2022/02/01 16:34:19;;;;;;;0.93;0.45;;;;;;;;;;4925011;29;20501;-75
2022/02/01 16:36:51;;;;;;;0.95;0.43;;;;;;;;;;4925540;29;20071;-78
2022/02/01 16:39:22;;;;;;;0.90;0.35;;;;;;;;;;4927982;29;20048;-73
2022/02/01 16:41:57;;;;;;;0.93;0.33;;;;;;;;;;4926985;29;20481;-79
2022/02/01 16:44:46;;;;;;;0.75;0.20;;;;;;;;;;4922346;29;20040;-72
2022/02/01 16:47:16;;;;;;;1.48;0.40;;;;;;;;;;4922816;29;20107;-74
2022/02/01 16:50:07;;;;;;;2.75;0.52;;;;;;;;;;4921488;29;20052;-74
2022/02/01 16:52:46;;;;;;;1.00;0.30;;;;;;;;;;4924219;29;20035;-75
2022/02/01 16:55:22;;;;;;;0.70;0.20;;;;;;;;;;4919415;29;20051;-75
2022/02/01 16:57:55;;;;;;;1.38;0.57;;;;;;;;;;4926125;29;20039;-74
2022/02/01 17:00:31;;;;;;;1.92;0.35;;;;;;;;;;4928240;29;20482;-74
2022/02/01 17:03:01;;;;;;;0.60;0.10;;;;;;;;;;4924844;29;20040;-73
2022/02/01 17:05:29;;;;;;;1.00;0.43;;;;;;;;;;4926082;29;20043;-74
2022/02/01 17:07:58;;;;;;;1.20;0.50;;;;;;;;;;4922291;29;20036;-73
2022/02/01 17:10:27;;;;;;;1.95;0.90;;;;;;;;;;4908182;29;20127;-74
2022/02/01 17:13:07;;;;;;;1.20;0.25;;;;;;;;;;4921568;29;20116;-74
2022/02/01 17:15:56;;;;;;;1.20;0.45;;;;;;;;;;4919063;29;20060;-73
2022/02/01 17:21:33;;;;;;;0.67;0.20;;;;;;;;;;4906280;28;20048;-74
2022/02/01 17:24:29;;;;;;;0.45;0.20;;;;;;;;;;5034887;23;20112;-76
2022/02/01 17:30:02;;;;;;;1.48;0.40;;;;;;;;;;4918649;28;20047;-75
2022/02/01 17:32:31;;;;;;;1.38;0.40;;;;;;;;;;4935843;28;20051;-76
2022/02/01 17:34:59;;;;;;;1.13;0.30;;;;;;;;;;4949473;28;20126;-76
2022/02/01 17:37:30;;;;;;;1.13;0.40;;;;;;;;;;4953876;28;20446;-75
2022/02/01 17:40:00;;;;;;;0.70;0.20;;;;;;;;;;4951817;28;20058;-74
2022/02/01 17:42:33;;;;;;;1.05;0.40;;;;;;;;;;4952772;28;20424;-77
2022/02/01 17:45:04;;;;;;;1.33;0.40;;;;;;;;;;4955760;28;20046;-79